Time;durP1;ratioP1;P1;durP2;ratioP2;P2;SDS_P1;SDS_P2;PMS_P1;PMS_P2;Temp;Humidity;BMP_temperature;BMP_pressure;BME280_temperature;BME280_humidity;BME280_pressure;Samples;Min_cycle;Max_cycle;Signal;HPM_P1;HPM_P2
2022/12/15 00:39:02;;;;;;;2.10;1.30;;;;;;;;;;5081206;28;20154;-74
2022/12/15 00:41:28;;;;;;;4.47;1.45;;;;;;;;;;5081223;28;20385;-74
2022/12/15 00:43:53;;;;;;;4.10;1.50;;;;;;;;;;5079869;28;20203;-75
2022/12/15 00:50:50;;;;;;;5.63;1.33;;;;;;;;;;5081244;28;20032;-74
2022/12/15 01:21:56;;;;;;;2.90;1.40;;;;;;;;;;5083950;28;20082;-73
2022/12/15 01:24:21;;;;;;;4.28;1.35;;;;;;;;;;5083925;28;20032;-73
2022/12/15 01:26:47;;;;;;;4.57;1.30;;;;;;;;;;5084338;28;20335;-73
2022/12/15 01:29:12;;;;;;;4.07;1.40;;;;;;;;;;5084464;28;20035;-74
2022/12/15 01:31:38;;;;;;;3.35;1.27;;;;;;;;;;5084167;28;20084;-72
2022/12/15 01:34:03;;;;;;;2.58;1.13;;;;;;;;;;5084084;28;20040;-73
2022/12/15 01:36:29;;;;;;;3.22;1.20;;;;;;;;;;5084214;28;20032;-74
2022/12/15 01:38:54;;;;;;;4.72;1.50;;;;;;;;;;5084178;28;20044;-73
2022/12/15 01:41:20;;;;;;;3.20;1.38;;;;;;;;;;5084134;28;20092;-73
2022/12/15 01:43:45;;;;;;;2.55;1.33;;;;;;;;;;5083168;28;20093;-73
2022/12/15 01:46:14;;;;;;;3.22;1.45;;;;;;;;;;5082982;28;20048;-72
2022/12/15 01:48:47;;;;;;;2.95;1.48;;;;;;;;;;5082507;28;20327;-73
2022/12/15 01:51:18;;;;;;;3.42;1.40;;;;;;;;;;5082744;28;20238;-73
2022/12/15 01:53:53;;;;;;;4.28;1.60;;;;;;;;;;5082481;28;20056;-73
2022/12/15 01:56:20;;;;;;;2.20;1.40;;;;;;;;;;5083071;28;20016;-75
2022/12/15 01:58:49;;;;;;;5.57;1.60;;;;;;;;;;5083276;28;20039;-75
2022/12/15 02:01:15;;;;;;;3.80;1.70;;;;;;;;;;5083754;28;20309;-74
2022/12/15 02:03:42;;;;;;;3.67;1.75;;;;;;;;;;5083237;28;20066;-74
2022/12/15 02:06:09;;;;;;;4.50;1.95;;;;;;;;;;5083284;28;20316;-74
2022/12/15 02:08:35;;;;;;;2.88;1.50;;;;;;;;;;5083584;28;20024;-72
2022/12/15 02:11:13;;;;;;;3.88;1.65;;;;;;;;;;5083640;28;20036;-75
2022/12/15 02:13:55;;;;;;;3.75;1.70;;;;;;;;;;5083342;28;20070;-71
2022/12/15 02:16:32;;;;;;;3.08;1.52;;;;;;;;;;5082474;28;20069;-74
2022/12/15 02:19:13;;;;;;;3.40;1.60;;;;;;;;;;5083433;28;20028;-75
2022/12/15 02:22:03;;;;;;;3.70;1.80;;;;;;;;;;5083459;28;20024;-74
2022/12/15 02:24:47;;;;;;;5.32;1.77;;;;;;;;;;5083289;28;20358;-74
2022/12/15 02:27:41;;;;;;;3.83;1.77;;;;;;;;;;5083463;28;20259;-71
2022/12/15 02:30:27;;;;;;;3.30;1.80;;;;;;;;;;5080191;28;20223;-72
2022/12/15 02:33:26;;;;;;;3.33;1.80;;;;;;;;;;5081850;28;20021;-71
2022/12/15 02:35:59;;;;;;;4.22;2.00;;;;;;;;;;5083014;28;20035;-71
2022/12/15 02:38:35;;;;;;;3.22;1.98;;;;;;;;;;5083001;28;20066;-72
2022/12/15 02:41:03;;;;;;;5.60;2.20;;;;;;;;;;5082790;28;20317;-71
2022/12/15 02:43:32;;;;;;;3.28;1.80;;;;;;;;;;5082740;28;20020;-73
2022/12/15 02:46:06;;;;;;;3.50;1.92;;;;;;;;;;5083094;28;20028;-73
2022/12/15 02:48:46;;;;;;;4.28;1.98;;;;;;;;;;5082827;28;20088;-73
2022/12/15 02:51:17;;;;;;;3.65;2.20;;;;;;;;;;5082701;28;20028;-74
2022/12/15 02:54:01;;;;;;;4.93;2.17;;;;;;;;;;5082309;28;20050;-74
2022/12/15 02:56:46;;;;;;;3.42;2.20;;;;;;;;;;5081130;28;20027;-74
2022/12/15 02:59:31;;;;;;;5.78;2.60;;;;;;;;;;5081879;28;20020;-74
2022/12/15 03:02:02;;;;;;;7.60;2.55;;;;;;;;;;5082522;28;20095;-72
2022/12/15 03:04:28;;;;;;;4.55;2.35;;;;;;;;;;5082445;28;20030;-75
2022/12/15 03:06:57;;;;;;;5.85;2.50;;;;;;;;;;5082386;28;20067;-74
2022/12/15 03:09:22;;;;;;;4.38;2.60;;;;;;;;;;5082391;28;20036;-74
2022/12/15 03:11:48;;;;;;;6.03;2.95;;;;;;;;;;5081688;28;20016;-74
2022/12/15 03:14:13;;;;;;;5.18;2.78;;;;;;;;;;5081287;28;20285;-73
2022/12/15 03:16:39;;;;;;;6.50;2.80;;;;;;;;;;5082134;28;20016;-73
2022/12/15 03:19:04;;;;;;;6.32;2.45;;;;;;;;;;5082259;28;20016;-74
2022/12/15 03:21:29;;;;;;;5.45;2.85;;;;;;;;;;5082318;28;20028;-72
2022/12/15 03:23:55;;;;;;;6.35;2.90;;;;;;;;;;5081922;28;20012;-72
2022/12/15 03:26:20;;;;;;;5.38;2.80;;;;;;;;;;5081788;28;20090;-72
2022/12/15 03:28:46;;;;;;;4.93;3.00;;;;;;;;;;5081902;28;20020;-74
2022/12/15 03:31:11;;;;;;;7.55;3.47;;;;;;;;;;5081991;28;20021;-73
2022/12/15 03:33:36;;;;;;;6.32;3.40;;;;;;;;;;5081070;28;20028;-74
2022/12/15 03:36:02;;;;;;;6.35;3.15;;;;;;;;;;5080950;28;20036;-73
2022/12/15 03:38:27;;;;;;;6.28;3.33;;;;;;;;;;5080382;28;20127;-74
2022/12/15 03:40:53;;;;;;;7.32;3.45;;;;;;;;;;5080325;28;20082;-75
2022/12/15 03:43:18;;;;;;;7.70;3.63;;;;;;;;;;5080614;28;20283;-75
2022/12/15 03:45:43;;;;;;;9.00;3.40;;;;;;;;;;5080010;28;20033;-71
2022/12/15 03:48:09;;;;;;;6.63;3.28;;;;;;;;;;5080310;28;20032;-71
2022/12/15 03:50:34;;;;;;;5.93;3.13;;;;;;;;;;5080017;28;20070;-72
2022/12/15 03:53:02;;;;;;;5.13;2.75;;;;;;;;;;5080436;28;20028;-72
2022/12/15 03:55:27;;;;;;;5.07;2.85;;;;;;;;;;5080664;28;20571;-72
2022/12/15 03:57:54;;;;;;;4.97;3.00;;;;;;;;;;5081146;28;20032;-71
2022/12/15 04:00:20;;;;;;;5.78;2.65;;;;;;;;;;5080173;28;20228;-71
2022/12/15 04:02:46;;;;;;;5.78;2.63;;;;;;;;;;5080055;28;20204;-71
2022/12/15 04:05:33;;;;;;;7.72;2.50;;;;;;;;;;5080035;28;20039;-72
2022/12/15 04:08:01;;;;;;;6.43;2.28;;;;;;;;;;5080035;28;20111;-72
2022/12/15 04:10:29;;;;;;;4.53;2.08;;;;;;;;;;5080498;28;20096;-72
2022/12/15 04:13:01;;;;;;;3.47;1.88;;;;;;;;;;5080531;28;20091;-73
2022/12/15 04:15:27;;;;;;;3.97;1.90;;;;;;;;;;5080033;28;20077;-74
2022/12/15 04:17:52;;;;;;;3.42;1.83;;;;;;;;;;5078717;28;20484;-75
2022/12/15 04:20:18;;;;;;;4.32;2.20;;;;;;;;;;5079381;28;20035;-72
2022/12/15 04:22:46;;;;;;;4.93;1.95;;;;;;;;;;5079986;28;20028;-73
2022/12/15 05:34:21;;;;;;;4.65;2.20;;;;;;;;;;5084404;28;20285;-73
2022/12/15 05:36:48;;;;;;;3.42;2.00;;;;;;;;;;5084021;28;20043;-72
2022/12/15 05:39:13;;;;;;;5.97;2.30;;;;;;;;;;5084309;28;20054;-75
2022/12/15 05:41:38;;;;;;;4.57;2.20;;;;;;;;;;5083986;28;20201;-72
2022/12/15 05:44:04;;;;;;;3.38;2.15;;;;;;;;;;5083808;28;20025;-73
2022/12/15 05:46:29;;;;;;;4.88;2.50;;;;;;;;;;5083548;28;20024;-76
2022/12/15 05:48:55;;;;;;;4.70;2.28;;;;;;;;;;5083724;28;20242;-74
2022/12/15 05:51:20;;;;;;;4.20;2.45;;;;;;;;;;5082759;28;20037;-74
2022/12/15 05:53:46;;;;;;;4.68;2.60;;;;;;;;;;5082745;28;20277;-74
2022/12/15 05:56:13;;;;;;;5.35;2.40;;;;;;;;;;5083973;28;20028;-73
2022/12/15 05:58:40;;;;;;;5.38;2.60;;;;;;;;;;5082472;28;20437;-73
2022/12/15 06:01:08;;;;;;;5.70;2.47;;;;;;;;;;5082859;28;20366;-72
2022/12/15 06:03:33;;;;;;;4.60;2.65;;;;;;;;;;5082965;28;20021;-73
2022/12/15 06:06:00;;;;;;;4.97;2.40;;;;;;;;;;5083209;28;20090;-73
2022/12/15 06:08:29;;;;;;;4.65;2.65;;;;;;;;;;5083026;28;20056;-73
2022/12/15 06:10:55;;;;;;;5.47;2.67;;;;;;;;;;5083500;28;20024;-74
2022/12/15 06:13:22;;;;;;;7.53;3.47;;;;;;;;;;5083629;28;20035;-76
2022/12/15 06:16:05;;;;;;;7.20;4.50;;;;;;;;;;5083361;28;20107;-75
2022/12/15 06:18:35;;;;;;;11.77;6.13;;;;;;;;;;5083400;28;20040;-72
2022/12/15 06:21:13;;;;;;;17.77;8.18;;;;;;;;;;5081868;28;20117;-72
2022/12/15 06:23:39;;;;;;;12.82;8.30;;;;;;;;;;5082085;28;20147;-72
2022/12/15 06:26:18;;;;;;;18.00;10.02;;;;;;;;;;5082189;28;20036;-74
2022/12/15 06:28:44;;;;;;;20.25;9.90;;;;;;;;;;5081924;28;20080;-73
2022/12/15 06:31:10;;;;;;;19.02;10.52;;;;;;;;;;5081851;28;20036;-74
2022/12/15 06:33:36;;;;;;;17.90;9.75;;;;;;;;;;5082827;28;20020;-72
2022/12/15 06:36:05;;;;;;;18.42;10.15;;;;;;;;;;5081440;28;20048;-72
2022/12/15 06:38:31;;;;;;;16.88;9.30;;;;;;;;;;5064107;28;20031;-74
2022/12/15 06:41:01;;;;;;;15.40;7.88;;;;;;;;;;5081343;28;20024;-72
2022/12/15 06:43:28;;;;;;;12.45;6.60;;;;;;;;;;5081815;28;20500;-74
2022/12/15 06:45:54;;;;;;;12.35;6.05;;;;;;;;;;5114929;22;20044;-70
2022/12/15 06:48:20;;;;;;;14.35;5.20;;;;;;;;;;5123200;28;20254;-70
2022/12/15 06:50:46;;;;;;;9.77;4.63;;;;;;;;;;5122419;28;20028;-70
2022/12/15 06:53:12;;;;;;;9.40;3.97;;;;;;;;;;5123262;28;20125;-70
2022/12/15 06:55:47;;;;;;;8.43;4.00;;;;;;;;;;5123320;28;20047;-73
2022/12/15 06:58:13;;;;;;;10.82;3.78;;;;;;;;;;5104984;28;20070;-69
2022/12/15 07:00:41;;;;;;;8.15;3.40;;;;;;;;;;5123237;28;20067;-70
2022/12/15 07:03:11;;;;;;;7.85;3.50;;;;;;;;;;5122660;28;20035;-70
2022/12/15 07:05:36;;;;;;;9.13;3.10;;;;;;;;;;5121948;28;20358;-71
2022/12/15 07:08:02;;;;;;;8.43;3.78;;;;;;;;;;5122710;28;20023;-71
2022/12/15 07:10:32;;;;;;;7.93;3.22;;;;;;;;;;5121937;28;20027;-72
2022/12/15 07:12:57;;;;;;;8.10;3.47;;;;;;;;;;5121872;28;20109;-73
2022/12/15 07:15:23;;;;;;;5.88;3.15;;;;;;;;;;5103940;28;20036;-71
2022/12/15 07:17:49;;;;;;;8.43;3.20;;;;;;;;;;5121070;28;20023;-69
2022/12/15 07:20:15;;;;;;;11.25;3.65;;;;;;;;;;5122432;28;20054;-74
2022/12/15 07:22:40;;;;;;;9.10;3.25;;;;;;;;;;5104536;28;20031;-73
2022/12/15 07:25:07;;;;;;;8.35;3.47;;;;;;;;;;5122819;28;20027;-71
2022/12/15 07:27:32;;;;;;;6.65;3.60;;;;;;;;;;5122604;28;20027;-70
2022/12/15 07:29:57;;;;;;;10.43;3.80;;;;;;;;;;5122729;28;20023;-70
2022/12/15 07:32:23;;;;;;;8.43;3.30;;;;;;;;;;5122360;28;20024;-71
2022/12/15 07:34:48;;;;;;;9.32;3.80;;;;;;;;;;5122596;28;20100;-70
2022/12/15 07:37:15;;;;;;;7.82;3.45;;;;;;;;;;5122704;28;20372;-70
2022/12/15 07:39:40;;;;;;;10.95;3.78;;;;;;;;;;5122655;28;20028;-70
2022/12/15 07:42:05;;;;;;;10.00;4.28;;;;;;;;;;5109916;28;20072;-71
2022/12/15 07:44:31;;;;;;;9.30;4.60;;;;;;;;;;5101575;28;20027;-71
2022/12/15 07:46:56;;;;;;;8.07;4.10;;;;;;;;;;5101319;28;20056;-71
2022/12/15 07:49:22;;;;;;;7.82;3.42;;;;;;;;;;5101834;28;20212;-70
2022/12/15 07:51:48;;;;;;;8.50;3.55;;;;;;;;;;5101995;28;20024;-70
2022/12/15 07:54:14;;;;;;;9.40;3.83;;;;;;;;;;5101955;28;20024;-70
2022/12/15 07:56:39;;;;;;;7.85;3.50;;;;;;;;;;5101860;28;20031;-70
2022/12/15 07:59:06;;;;;;;8.70;3.78;;;;;;;;;;5101816;28;20059;-70
2022/12/15 08:01:33;;;;;;;10.18;3.88;;;;;;;;;;5101506;28;20060;-70
2022/12/15 08:03:59;;;;;;;7.10;3.75;;;;;;;;;;5101292;28;20096;-70
2022/12/15 08:06:25;;;;;;;10.82;4.47;;;;;;;;;;5101617;28;20020;-70
2022/12/15 08:08:50;;;;;;;8.50;4.25;;;;;;;;;;5101792;28;20032;-70
2022/12/15 08:11:16;;;;;;;7.22;4.13;;;;;;;;;;5101765;28;20317;-70
2022/12/15 08:13:43;;;;;;;6.65;3.40;;;;;;;;;;5101494;28;20024;-70
2022/12/15 08:16:09;;;;;;;8.70;3.97;;;;;;;;;;5101845;28;20027;-70
2022/12/15 08:18:34;;;;;;;7.32;4.03;;;;;;;;;;5101574;28;20032;-70
2022/12/15 08:21:05;;;;;;;8.88;4.03;;;;;;;;;;5101656;28;20095;-71
2022/12/15 08:23:30;;;;;;;;;;;;;;;;;;5101804;28;20028;-70
2022/12/15 08:26:11;;;;;;;8.20;3.90;;;;;;;;;;5101638;28;19945;-69
2022/12/15 08:28:38;;;;;;;7.07;3.38;;;;;;;;;;5101187;28;20062;-72
2022/12/15 08:31:12;;;;;;;9.88;3.67;;;;;;;;;;5100938;28;20082;-72
2022/12/15 08:33:38;;;;;;;6.75;3.42;;;;;;;;;;5099538;28;20028;-74
2022/12/15 08:36:07;;;;;;;7.05;3.58;;;;;;;;;;5100645;28;20020;-73
2022/12/15 08:38:33;;;;;;;9.40;4.35;;;;;;;;;;5100274;28;20327;-73
2022/12/15 08:41:07;;;;;;;7.03;4.10;;;;;;;;;;5100194;28;20032;-74
2022/12/15 08:43:33;;;;;;;8.85;3.63;;;;;;;;;;5101045;28;20028;-73
2022/12/15 08:45:59;;;;;;;8.30;4.47;;;;;;;;;;5100836;28;20331;-74
2022/12/15 08:48:25;;;;;;;7.97;4.00;;;;;;;;;;5099828;28;20035;-74
2022/12/15 08:50:50;;;;;;;6.40;3.78;;;;;;;;;;5101252;28;20024;-73
2022/12/15 08:53:15;;;;;;;7.40;3.75;;;;;;;;;;5101101;28;20062;-72
2022/12/15 08:55:41;;;;;;;10.05;3.80;;;;;;;;;;5100828;28;20012;-73
2022/12/15 08:58:06;;;;;;;7.90;3.80;;;;;;;;;;5100130;28;20046;-71
2022/12/15 09:00:32;;;;;;;8.13;3.63;;;;;;;;;;5101040;28;20046;-69
2022/12/15 09:02:59;;;;;;;6.40;3.50;;;;;;;;;;5101137;28;20284;-69
2022/12/15 09:05:25;;;;;;;6.40;3.65;;;;;;;;;;5083124;28;20077;-70
2022/12/15 09:07:55;;;;;;;9.15;4.80;;;;;;;;;;5101159;28;20238;-69
2022/12/15 09:10:20;;;;;;;7.88;3.90;;;;;;;;;;5101327;28;20324;-72
2022/12/15 09:12:46;;;;;;;11.23;3.63;;;;;;;;;;5100823;28;20141;-71
2022/12/15 09:15:11;;;;;;;10.45;4.05;;;;;;;;;;5103744;28;20027;-73
2022/12/15 09:17:37;;;;;;;9.63;4.72;;;;;;;;;;5104334;28;20066;-71
2022/12/15 09:20:03;;;;;;;8.07;3.83;;;;;;;;;;5104795;28;20028;-69
2022/12/15 09:22:28;;;;;;;12.10;3.97;;;;;;;;;;5104792;28;20095;-72
2022/12/15 09:24:53;;;;;;;6.45;3.80;;;;;;;;;;5086577;28;20039;-70
2022/12/15 09:27:19;;;;;;;8.48;4.35;;;;;;;;;;5102608;28;20215;-69
2022/12/15 09:29:45;;;;;;;7.20;4.00;;;;;;;;;;5103663;28;20020;-69
2022/12/15 09:32:12;;;;;;;9.55;4.30;;;;;;;;;;5103742;28;20036;-69
2022/12/15 09:34:38;;;;;;;8.45;4.10;;;;;;;;;;5104310;28;20087;-71
2022/12/15 09:37:04;;;;;;;8.48;4.50;;;;;;;;;;5104602;28;20512;-70
2022/12/15 09:39:29;;;;;;;8.43;4.00;;;;;;;;;;5104555;28;20200;-71
2022/12/15 09:41:59;;;;;;;8.27;3.95;;;;;;;;;;5104467;28;20024;-70
2022/12/15 09:44:26;;;;;;;8.90;4.40;;;;;;;;;;5103984;28;20027;-72
2022/12/15 09:46:55;;;;;;;7.38;4.20;;;;;;;;;;5104276;28;20250;-72
2022/12/15 09:49:50;;;;;;;9.07;3.95;;;;;;;;;;5086150;28;20055;-72
2022/12/15 09:52:21;;;;;;;9.73;3.85;;;;;;;;;;5103997;28;20043;-72
2022/12/15 09:54:47;;;;;;;9.80;3.97;;;;;;;;;;5103942;28;20054;-71
2022/12/15 09:57:42;;;;;;;8.85;4.00;;;;;;;;;;5104280;28;20372;-71
2022/12/15 10:00:24;;;;;;;9.25;4.20;;;;;;;;;;5103913;28;20036;-74
2022/12/15 10:03:40;;;;;;;8.25;4.10;;;;;;;;;;5103853;28;20051;-72
2022/12/15 10:06:22;;;;;;;7.38;3.90;;;;;;;;;;5031212;28;20253;-72
2022/12/15 10:08:55;;;;;;;7.45;3.80;;;;;;;;;;5103870;28;20035;-72
2022/12/15 10:11:42;;;;;;;9.20;4.43;;;;;;;;;;5103972;28;20043;-73
2022/12/15 10:14:31;;;;;;;10.90;4.88;;;;;;;;;;5103535;28;20091;-74
2022/12/15 10:17:06;;;;;;;12.05;4.93;;;;;;;;;;5103963;28;20051;-72
2022/12/15 10:20:05;;;;;;;13.65;4.85;;;;;;;;;;5103583;28;20020;-72
2022/12/15 10:22:36;;;;;;;13.85;5.97;;;;;;;;;;5103620;28;20032;-71
2022/12/15 10:25:15;;;;;;;15.95;5.85;;;;;;;;;;5102746;28;20523;-79
2022/12/15 10:27:43;;;;;;;12.23;5.15;;;;;;;;;;5103381;28;20067;-79
2022/12/15 10:30:10;;;;;;;10.80;5.00;;;;;;;;;;5103563;28;20027;-81
2022/12/15 10:32:42;;;;;;;8.02;4.20;;;;;;;;;;5103519;28;20469;-78
2022/12/15 10:35:21;;;;;;;8.48;4.30;;;;;;;;;;5103384;28;20032;-76
2022/12/15 10:37:46;;;;;;;10.27;4.70;;;;;;;;;;5103292;28;20197;-74
2022/12/15 10:40:38;;;;;;;9.75;4.80;;;;;;;;;;5103283;28;20331;-72
2022/12/15 10:43:13;;;;;;;8.02;4.43;;;;;;;;;;5102702;28;20028;-71
2022/12/15 10:45:39;;;;;;;7.72;4.00;;;;;;;;;;5102996;28;20112;-70
2022/12/15 10:48:05;;;;;;;7.80;4.43;;;;;;;;;;5110237;28;20068;-71
2022/12/15 10:50:32;;;;;;;7.32;3.92;;;;;;;;;;5123216;27;20030;-71
2022/12/15 10:52:58;;;;;;;7.13;3.90;;;;;;;;;;5123230;28;20027;-71
2022/12/15 10:55:39;;;;;;;7.57;4.38;;;;;;;;;;5123250;28;20023;-72
2022/12/15 10:58:17;;;;;;;7.13;3.90;;;;;;;;;;5111306;28;20342;-73
2022/12/15 11:00:45;;;;;;;6.95;4.20;;;;;;;;;;5123190;28;20020;-73
2022/12/15 11:03:25;;;;;;;10.02;4.50;;;;;;;;;;5122983;28;20053;-71
2022/12/15 11:05:55;;;;;;;6.22;4.13;;;;;;;;;;5123125;28;20027;-73
2022/12/15 11:08:22;;;;;;;8.35;4.57;;;;;;;;;;5122732;28;20023;-72
2022/12/15 11:13:38;;;;;;;;;;;;;;;;;;5120127;28;20034;-71
2022/12/15 11:16:18;;;;;;;10.45;4.70;;;;;;;;;;5121627;28;20312;-72
2022/12/15 11:18:43;;;;;;;11.57;4.60;;;;;;;;;;5122022;28;20064;-74
2022/12/15 11:21:29;;;;;;;12.65;4.90;;;;;;;;;;5121893;28;20019;-74
2022/12/15 11:24:10;;;;;;;8.60;4.70;;;;;;;;;;5122371;28;20027;-72
2022/12/15 11:26:35;;;;;;;;;;;;;;;;;;5123233;28;20527;-71
2022/12/15 11:29:16;;;;;;;11.50;4.93;;;;;;;;;;5122600;28;19945;-72
2022/12/15 11:31:42;;;;;;;;;;;;;;;;;;5123054;28;20110;-72
2022/12/15 11:34:14;;;;;;;12.70;4.82;;;;;;;;;;5122455;28;19922;-74
2022/12/15 11:36:57;;;;;;;9.00;4.90;;;;;;;;;;5122437;28;20028;-72
2022/12/15 11:39:44;;;;;;;9.57;4.82;;;;;;;;;;5122496;28;20032;-73
2022/12/15 11:42:26;;;;;;;10.13;5.30;;;;;;;;;;5104279;28;20027;-76
2022/12/15 11:45:01;;;;;;;12.15;6.95;;;;;;;;;;5121069;28;20068;-72
2022/12/15 11:47:43;;;;;;;11.60;6.10;;;;;;;;;;5120812;28;20043;-72
2022/12/15 11:50:50;;;;;;;8.70;5.57;;;;;;;;;;5120726;28;20203;-72
2022/12/15 11:53:46;;;;;;;11.57;5.88;;;;;;;;;;5121499;28;20323;-70
2022/12/15 11:56:32;;;;;;;13.18;5.68;;;;;;;;;;5120752;28;20031;-73
2022/12/15 11:59:25;;;;;;;15.80;5.50;;;;;;;;;;5121928;28;20036;-68
2022/12/15 12:02:07;;;;;;;10.38;5.15;;;;;;;;;;5122081;28;20051;-69
2022/12/15 12:04:32;;;;;;;8.60;5.15;;;;;;;;;;5120031;28;20091;-72
2022/12/15 12:07:09;;;;;;;12.63;6.00;;;;;;;;;;5119825;28;20027;-71
2022/12/15 12:10:20;;;;;;;12.68;5.80;;;;;;;;;;5116589;28;20041;-71
2022/12/15 12:12:55;;;;;;;10.60;6.15;;;;;;;;;;5107190;28;20311;-68
2022/12/15 12:15:35;;;;;;;13.13;6.18;;;;;;;;;;5102150;28;20081;-68
2022/12/15 12:18:10;;;;;;;10.07;5.95;;;;;;;;;;5112408;28;20028;-68
2022/12/15 12:20:51;;;;;;;11.43;6.45;;;;;;;;;;5112371;28;20027;-69
2022/12/15 12:23:26;;;;;;;10.10;6.22;;;;;;;;;;5112211;28;20031;-73
2022/12/15 12:26:39;;;;;;;10.07;6.00;;;;;;;;;;5113945;28;20028;-73
2022/12/15 12:29:38;;;;;;;10.98;6.15;;;;;;;;;;5091432;28;20179;-72
2022/12/15 12:32:29;;;;;;;11.30;6.65;;;;;;;;;;5119750;28;20024;-72
2022/12/15 12:35:15;;;;;;;13.65;6.50;;;;;;;;;;5121708;28;20307;-70
2022/12/15 12:37:51;;;;;;;9.43;6.03;;;;;;;;;;5101110;28;20039;-70
2022/12/15 12:40:50;;;;;;;9.77;5.88;;;;;;;;;;5109401;28;20020;-69
2022/12/15 12:43:31;;;;;;;10.18;5.95;;;;;;;;;;5115614;28;20088;-68
2022/12/15 12:46:07;;;;;;;11.90;6.38;;;;;;;;;;5121102;28;20062;-70
2022/12/15 12:48:38;;;;;;;12.00;5.97;;;;;;;;;;5122101;28;20342;-69
2022/12/15 12:51:12;;;;;;;12.20;6.28;;;;;;;;;;5119011;28;20079;-70
2022/12/15 12:53:37;;;;;;;10.80;6.43;;;;;;;;;;5105051;28;20035;-71
2022/12/15 12:56:02;;;;;;;13.20;6.80;;;;;;;;;;5116140;28;20521;-73
2022/12/15 12:58:40;;;;;;;13.70;6.05;;;;;;;;;;5124523;28;20353;-72
2022/12/15 13:01:24;;;;;;;9.73;6.50;;;;;;;;;;5117819;28;20098;-71
2022/12/15 13:04:11;;;;;;;11.73;6.97;;;;;;;;;;5118692;28;20030;-71
2022/12/15 13:06:39;;;;;;;11.88;6.78;;;;;;;;;;5117994;28;20039;-72
2022/12/15 13:09:38;;;;;;;13.02;7.25;;;;;;;;;;5117608;28;20043;-72
2022/12/15 13:12:04;;;;;;;12.55;7.53;;;;;;;;;;5095868;28;20024;-70
2022/12/15 13:14:34;;;;;;;14.02;7.75;;;;;;;;;;5095576;28;20043;-72
2022/12/15 13:17:36;;;;;;;11.48;6.85;;;;;;;;;;5103416;28;20028;-72
2022/12/15 13:20:01;;;;;;;10.10;6.57;;;;;;;;;;5040663;28;20051;-71
2022/12/15 13:22:30;;;;;;;12.13;7.65;;;;;;;;;;5078738;28;20112;-71
2022/12/15 13:24:56;;;;;;;10.30;6.80;;;;;;;;;;5095783;28;20025;-70
2022/12/15 13:27:22;;;;;;;12.38;7.50;;;;;;;;;;5097630;28;20087;-71
2022/12/15 13:29:56;;;;;;;11.80;7.38;;;;;;;;;;5104468;28;20044;-70
2022/12/15 13:32:27;;;;;;;12.93;7.35;;;;;;;;;;5102509;28;20078;-69
2022/12/15 13:34:53;;;;;;;11.40;7.50;;;;;;;;;;5104101;28;20348;-69
2022/12/15 13:37:40;;;;;;;11.20;7.32;;;;;;;;;;5104459;28;20095;-69
2022/12/15 13:40:34;;;;;;;13.15;7.78;;;;;;;;;;5104050;28;20099;-70
2022/12/15 13:43:03;;;;;;;15.85;7.80;;;;;;;;;;5090599;28;20076;-69
2022/12/15 13:45:48;;;;;;;11.20;7.30;;;;;;;;;;5078162;28;20040;-71
2022/12/15 13:48:31;;;;;;;14.52;7.38;;;;;;;;;;5076928;28;20399;-69
2022/12/15 13:51:26;;;;;;;12.57;8.35;;;;;;;;;;5102495;28;20023;-69
2022/12/15 13:53:57;;;;;;;11.20;7.78;;;;;;;;;;5085395;28;20149;-69
2022/12/15 13:56:36;;;;;;;12.68;7.55;;;;;;;;;;5102761;28;20040;-69
2022/12/15 13:59:32;;;;;;;10.43;6.68;;;;;;;;;;5084680;28;20031;-69
2022/12/15 14:01:58;;;;;;;13.77;6.85;;;;;;;;;;5085242;28;20036;-68
2022/12/15 14:04:24;;;;;;;11.13;6.80;;;;;;;;;;5105945;28;20078;-69
2022/12/15 14:06:52;;;;;;;9.43;5.80;;;;;;;;;;5111879;28;20031;-69
2022/12/15 14:09:40;;;;;;;12.00;6.18;;;;;;;;;;5123245;28;20019;-69
2022/12/15 14:12:12;;;;;;;8.77;5.47;;;;;;;;;;5123010;28;20020;-71
2022/12/15 14:14:44;;;;;;;9.48;5.70;;;;;;;;;;5121102;28;20144;-69
2022/12/15 14:17:15;;;;;;;8.00;4.60;;;;;;;;;;5114374;28;20031;-73
2022/12/15 14:19:48;;;;;;;;;;;;;;;;;;5112219;28;20085;-71
2022/12/15 14:22:21;;;;;;;8.48;4.47;;;;;;;;;;5111602;28;19919;-70
2022/12/15 14:24:47;;;;;;;8.05;4.75;;;;;;;;;;5093909;28;20543;-70
2022/12/15 14:27:27;;;;;;;7.05;4.20;;;;;;;;;;5113664;28;20037;-70
2022/12/15 14:30:17;;;;;;;5.57;3.92;;;;;;;;;;5112375;28;20484;-70
2022/12/15 14:32:44;;;;;;;6.15;4.40;;;;;;;;;;5112062;28;20031;-71
2022/12/15 14:35:31;;;;;;;8.80;4.85;;;;;;;;;;5111467;28;20031;-70
2022/12/15 14:37:59;;;;;;;11.20;4.90;;;;;;;;;;5111835;28;20112;-69
2022/12/15 14:40:26;;;;;;;8.13;4.32;;;;;;;;;;5112240;28;20041;-69
2022/12/15 14:42:53;;;;;;;9.80;4.63;;;;;;;;;;5111886;28;20023;-70
2022/12/15 14:45:30;;;;;;;6.57;4.30;;;;;;;;;;5111687;28;20131;-70
2022/12/15 14:48:00;;;;;;;7.85;4.78;;;;;;;;;;5112037;28;20035;-70
2022/12/15 14:50:26;;;;;;;7.60;4.60;;;;;;;;;;5112030;28;20047;-70
2022/12/15 14:53:05;;;;;;;5.68;4.03;;;;;;;;;;5103385;28;20032;-70
2022/12/15 14:55:35;;;;;;;7.60;4.20;;;;;;;;;;5091441;28;20077;-70
2022/12/15 14:58:20;;;;;;;10.55;4.45;;;;;;;;;;5091308;28;20103;-70
2022/12/15 15:00:51;;;;;;;11.00;4.90;;;;;;;;;;5091422;28;20047;-70
2022/12/15 15:03:24;;;;;;;9.93;4.00;;;;;;;;;;5092249;28;20081;-70
2022/12/15 15:05:58;;;;;;;7.75;4.10;;;;;;;;;;5090769;28;20111;-69
2022/12/15 15:08:29;;;;;;;9.18;3.97;;;;;;;;;;5096623;28;20032;-70
2022/12/15 15:10:58;;;;;;;7.10;4.28;;;;;;;;;;5094552;28;20024;-69
2022/12/15 15:13:27;;;;;;;7.00;4.10;;;;;;;;;;5090626;28;20028;-69
2022/12/15 15:15:55;;;;;;;7.80;4.63;;;;;;;;;;5090946;28;20020;-70
2022/12/15 15:18:25;;;;;;;9.00;4.07;;;;;;;;;;5091037;28;20070;-70
2022/12/15 15:21:02;;;;;;;6.95;4.10;;;;;;;;;;5090945;28;20563;-70
2022/12/15 15:23:28;;;;;;;8.18;4.45;;;;;;;;;;5090505;28;20283;-70
2022/12/15 15:26:15;;;;;;;6.50;4.30;;;;;;;;;;5090663;28;20028;-70
2022/12/15 15:28:43;;;;;;;6.35;4.20;;;;;;;;;;5090728;28;20028;-70
2022/12/15 15:31:23;;;;;;;7.38;4.22;;;;;;;;;;5090739;28;20036;-70
2022/12/15 15:33:53;;;;;;;9.82;4.35;;;;;;;;;;5090956;28;20036;-70
2022/12/15 15:36:20;;;;;;;8.68;4.43;;;;;;;;;;5090417;28;20408;-69
2022/12/15 15:38:51;;;;;;;6.82;4.15;;;;;;;;;;5090541;28;20024;-71
2022/12/15 15:41:17;;;;;;;7.70;3.97;;;;;;;;;;5090508;28;20024;-70
2022/12/15 15:43:43;;;;;;;6.57;3.72;;;;;;;;;;5090255;28;20027;-70
2022/12/15 15:46:11;;;;;;;9.32;4.13;;;;;;;;;;5090155;28;20048;-69
2022/12/15 15:48:41;;;;;;;7.07;3.83;;;;;;;;;;5090445;28;20098;-69
2022/12/15 15:51:07;;;;;;;6.40;4.15;;;;;;;;;;5090744;28;20024;-70
2022/12/15 15:53:34;;;;;;;5.75;3.92;;;;;;;;;;5090450;28;20137;-70
2022/12/15 15:56:02;;;;;;;8.93;3.83;;;;;;;;;;5090393;28;20036;-69
2022/12/15 15:58:27;;;;;;;6.78;3.80;;;;;;;;;;5090820;28;20093;-69
2022/12/15 16:00:53;;;;;;;8.52;4.00;;;;;;;;;;5090359;28;20028;-69
2022/12/15 16:03:18;;;;;;;7.15;4.13;;;;;;;;;;5090527;28;20103;-70
2022/12/15 16:05:44;;;;;;;8.88;4.50;;;;;;;;;;5090079;28;20126;-69
2022/12/15 16:08:24;;;;;;;8.90;4.38;;;;;;;;;;5072084;28;20024;-69
2022/12/15 16:10:49;;;;;;;8.73;4.15;;;;;;;;;;5090350;28;20048;-69
2022/12/15 16:13:19;;;;;;;7.05;4.18;;;;;;;;;;5090101;28;20055;-69
2022/12/15 16:15:45;;;;;;;8.40;4.32;;;;;;;;;;5089968;28;20016;-69
2022/12/15 16:18:10;;;;;;;9.32;4.38;;;;;;;;;;5089956;28;20038;-69
2022/12/15 16:20:37;;;;;;;8.63;4.22;;;;;;;;;;5090062;28;20411;-69
2022/12/15 16:23:14;;;;;;;11.55;4.55;;;;;;;;;;5089207;28;20020;-69
2022/12/15 16:25:46;;;;;;;10.15;4.28;;;;;;;;;;5089758;28;20028;-68
2022/12/15 16:28:17;;;;;;;7.78;4.70;;;;;;;;;;5090000;28;20024;-68
2022/12/15 16:30:43;;;;;;;8.98;4.50;;;;;;;;;;5090066;28;20019;-70
2022/12/15 16:33:09;;;;;;;10.88;4.88;;;;;;;;;;5089817;28;20024;-68
2022/12/15 16:35:35;;;;;;;8.93;5.38;;;;;;;;;;5089735;28;20023;-74
2022/12/15 16:38:05;;;;;;;11.80;4.95;;;;;;;;;;5071854;28;20024;-73
2022/12/15 16:40:36;;;;;;;7.33;4.90;;;;;;;;;;5101170;28;20228;-69
2022/12/15 16:43:02;;;;;;;6.70;4.65;;;;;;;;;;5116691;28;20342;-72
2022/12/15 16:45:30;;;;;;;8.77;4.82;;;;;;;;;;5114889;28;20059;-71
2022/12/15 16:47:56;;;;;;;8.63;5.20;;;;;;;;;;5106238;28;20312;-69
2022/12/15 16:50:38;;;;;;;7.57;5.00;;;;;;;;;;5111775;28;20316;-71
2022/12/15 16:53:06;;;;;;;11.38;5.40;;;;;;;;;;5119081;28;20284;-68
2022/12/15 16:55:34;;;;;;;7.95;5.03;;;;;;;;;;5108029;28;20613;-71
2022/12/15 16:58:02;;;;;;;11.15;5.10;;;;;;;;;;5107503;28;20024;-69
2022/12/15 17:00:31;;;;;;;9.10;5.00;;;;;;;;;;5108984;28;20039;-70
2022/12/15 17:02:57;;;;;;;9.63;5.18;;;;;;;;;;5095704;28;20085;-70
2022/12/15 17:05:28;;;;;;;13.90;5.55;;;;;;;;;;5088363;28;20028;-70
2022/12/15 17:07:56;;;;;;;9.88;5.40;;;;;;;;;;5088300;28;20028;-72
2022/12/15 17:10:25;;;;;;;13.82;6.45;;;;;;;;;;5088433;28;20710;-72
2022/12/15 17:12:52;;;;;;;10.32;5.82;;;;;;;;;;5089785;28;20020;-70
2022/12/15 17:15:21;;;;;;;10.82;6.45;;;;;;;;;;5088527;28;20039;-77
2022/12/15 17:17:48;;;;;;;11.50;6.55;;;;;;;;;;5088232;28;20434;-71
2022/12/15 17:20:25;;;;;;;13.27;7.25;;;;;;;;;;5088599;28;20111;-71
2022/12/15 17:22:54;;;;;;;28.42;15.07;;;;;;;;;;5095127;28;20059;-70
2022/12/15 17:25:25;;;;;;;32.35;16.45;;;;;;;;;;5089291;28;20024;-73
2022/12/15 17:27:52;;;;;;;33.63;18.40;;;;;;;;;;5068557;28;20122;-71
2022/12/15 17:30:18;;;;;;;43.92;22.80;;;;;;;;;;5068898;28;20478;-71